Terminal Aerodrome Forecast
Issued by NWS

Home | Current Version | Previous Version | Text Only | Print | Product List | Glossary On
Versions: 1 2 3 4 5 6 7 8 9 10 11 12 13 14 15 16 17 18 19
000
FTUS43 KJKL 220539
TAFSME
TAF
KSME 220539Z 2206/2306 VRB03KT 6SM BR FEW200 SCT250
     FM220900 VRB03KT 2SM BR FEW250
     FM221000 VRB03KT 1SM BR FEW001 FEW250
     FM221330 VRB03KT P6SM FEW250=

USA.gov is the U.S. government's official web portal to all federal, state and local government web resources and services.